createdAt,value
2018-03-21T00:01:38.960Z,94769.38
2018-03-21T00:04:04.904Z,94764.84
2018-03-21T00:06:30.915Z,94752.05
2018-03-21T00:08:56.892Z,94739.84
2018-03-21T00:11:22.878Z,94738.46
2018-03-21T00:13:48.843Z,94738.66
2018-03-21T00:16:14.848Z,94744.73
2018-03-21T00:18:40.825Z,94740.04
2018-03-21T00:21:06.797Z,94735.34
2018-03-21T00:23:32.784Z,94746.69
2018-03-21T00:25:58.756Z,94747.28
2018-03-21T00:28:24.771Z,94733.52
2018-03-21T00:30:50.744Z,94714.42
2018-03-21T00:33:16.718Z,94715.80
2018-03-21T00:35:42.732Z,94712.65
2018-03-21T00:38:08.718Z,94710.87
2018-03-21T00:40:34.693Z,94704.39
2018-03-21T00:43:00.673Z,94704.22
2018-03-21T00:45:26.652Z,94701.64
2018-03-21T00:47:52.624Z,94690.83
2018-03-21T00:50:18.598Z,94689.82
2018-03-21T00:52:44.572Z,94691.00
2018-03-21T00:55:10.585Z,94690.22
2018-03-21T00:57:36.529Z,94691.60
2018-03-21T01:00:02.515Z,94692.61
2018-03-21T01:02:28.483Z,94688.05
2018-03-21T01:04:54.463Z,94685.69
2018-03-21T01:07:20.481Z,94680.36
2018-03-21T01:09:46.418Z,94682.67
2018-03-21T01:12:12.398Z,94676.23
2018-03-21T01:14:38.371Z,94671.87
2018-03-21T01:17:04.350Z,94674.99
2018-03-21T01:19:30.332Z,94675.39
2018-03-21T01:21:56.308Z,94673.61
2018-03-21T01:24:22.292Z,94667.91
2018-03-21T01:26:48.334Z,94666.53
2018-03-21T01:29:14.265Z,94659.08
2018-03-21T01:31:40.245Z,94663.38
2018-03-21T01:34:06.226Z,94665.16
2018-03-21T01:36:32.198Z,94679.89
2018-03-21T01:38:58.212Z,94687.34
2018-03-21T01:41:24.184Z,94702.48
2018-03-21T01:43:50.156Z,94712.11
2018-03-21T01:46:16.159Z,94718.02
2018-03-21T01:48:42.103Z,94716.84
2018-03-21T01:51:08.079Z,94712.72
2018-03-21T01:53:34.119Z,94717.41
2018-03-21T01:56:00.092Z,94708.35
2018-03-21T01:58:26.063Z,94719.77
2018-03-21T02:00:52.041Z,94712.08
2018-03-21T02:03:18.019Z,94697.75
2018-03-21T02:05:44.020Z,94689.29
2018-03-21T02:08:09.970Z,94689.29
2018-03-21T02:10:35.975Z,94694.56
2018-03-21T02:13:01.952Z,94694.39
2018-03-21T02:15:27.895Z,94695.77
2018-03-21T02:17:53.904Z,94700.06
2018-03-21T02:20:19.841Z,94697.14
2018-03-21T02:22:45.821Z,94699.09
2018-03-21T02:25:11.805Z,94695.36
2018-03-21T02:27:37.818Z,94689.86
2018-03-21T02:30:03.798Z,94676.09
2018-03-21T02:32:29.786Z,94670.39
2018-03-21T02:34:55.806Z,94676.27
2018-03-21T02:37:21.779Z,94683.55
2018-03-21T02:39:47.732Z,94687.28
2018-03-21T02:42:13.740Z,94674.69
2018-03-21T02:44:39.681Z,94670.56
2018-03-21T02:47:05.688Z,94664.25
2018-03-21T02:49:31.687Z,94659.55
2018-03-21T02:51:57.626Z,94662.88
2018-03-21T02:54:23.640Z,94668.58
2018-03-21T02:56:49.614Z,94667.81
2018-03-21T02:59:15.561Z,94650.69
2018-03-21T03:01:41.565Z,94649.12
2018-03-21T03:04:07.530Z,94638.71
2018-03-21T03:06:33.558Z,94631.03
2018-03-21T03:08:59.531Z,94639.69
2018-03-21T03:11:25.536Z,94640.26
2018-03-21T03:13:51.484Z,94636.94
2018-03-21T03:16:17.501Z,94632.41
2018-03-21T03:18:43.454Z,94634.58
2018-03-21T03:21:09.428Z,94637.91
2018-03-21T03:23:35.409Z,94636.30
2018-03-21T03:26:01.390Z,94642.20
2018-03-21T03:28:27.360Z,94631.59
2018-03-21T03:30:53.339Z,94628.05
2018-03-21T03:33:19.362Z,94626.09
2018-03-21T03:35:45.292Z,94626.09
2018-03-21T03:38:11.269Z,94615.46
2018-03-21T03:40:37.295Z,94613.52
2018-03-21T03:43:03.278Z,94615.46
2018-03-21T03:45:29.249Z,94606.63
2018-03-21T03:47:55.270Z,94613.85
2018-03-21T03:50:21.212Z,94602.27
2018-03-21T03:52:47.211Z,94607.78
2018-03-21T03:55:13.155Z,94601.88
2018-03-21T03:57:39.159Z,94598.14
2018-03-21T04:00:05.136Z,94590.86
2018-03-21T04:02:31.149Z,94593.81
2018-03-21T04:04:57.121Z,94589.09
2018-03-21T04:07:23.063Z,94590.26
2018-03-21T04:09:49.042Z,94595.77
2018-03-21T04:12:15.020Z,94596.73
2018-03-21T04:14:41.000Z,94599.48
2018-03-21T04:17:06.966Z,94599.48
2018-03-21T04:19:32.948Z,94596.53
2018-03-21T04:21:58.924Z,94601.44
2018-03-21T04:24:24.929Z,94597.51
2018-03-21T04:26:50.862Z,94598.66
2018-03-21T04:29:16.869Z,94598.31
2018-03-21T04:31:42.877Z,94616.20
2018-03-21T04:34:08.823Z,94614.63
2018-03-21T04:36:34.868Z,94623.08
2018-03-21T04:39:00.872Z,94622.67
2018-03-21T04:41:26.850Z,94622.44
2018-03-21T04:43:52.796Z,94615.56
2018-03-21T04:46:18.806Z,94620.66
2018-03-21T04:48:44.757Z,94627.95
2018-03-21T04:51:10.768Z,94631.91
2018-03-21T04:53:36.716Z,94629.95
2018-03-21T04:56:02.694Z,94636.23
2018-03-21T04:58:28.668Z,94639.59
2018-03-21T05:00:54.737Z,94639.79
2018-03-21T05:03:20.680Z,94643.11
2018-03-21T05:05:46.660Z,94643.75
2018-03-21T05:08:12.638Z,94645.69
2018-03-21T05:10:38.611Z,94652.61
2018-03-21T05:13:04.595Z,94653.21
2018-03-21T05:15:30.568Z,94645.19
2018-03-21T05:17:56.547Z,94648.72
2018-03-21T05:20:22.565Z,94653.84
2018-03-21T05:22:48.505Z,94659.16
2018-03-21T05:25:14.523Z,94657.97
2018-03-21T05:27:40.506Z,94662.30
2018-03-21T05:30:06.446Z,94660.13
2018-03-21T05:32:32.432Z,94665.46
2018-03-21T05:34:58.439Z,94661.36
2018-03-21T05:37:24.422Z,94665.30
2018-03-21T05:39:50.427Z,94672.20
2018-03-21T05:42:16.386Z,94666.13
2018-03-21T05:44:42.392Z,94679.31
2018-03-21T05:47:08.371Z,94665.56
2018-03-21T05:49:34.323Z,94678.14
2018-03-21T05:52:00.326Z,94684.31
2018-03-21T05:54:26.307Z,94690.42
2018-03-21T05:56:52.317Z,94689.63
2018-03-21T05:59:18.306Z,94682.60
2018-03-21T06:01:44.285Z,94671.59
2018-03-21T06:04:10.236Z,94678.27
2018-03-21T06:06:36.252Z,94690.22
2018-03-21T06:09:02.197Z,94689.66
2018-03-21T06:11:28.208Z,94680.22
2018-03-21T06:13:54.157Z,94685.49
2018-03-21T06:16:20.157Z,94683.91
2018-03-21T06:18:46.169Z,94691.77
2018-03-21T06:21:12.120Z,94700.42
2018-03-21T06:23:38.087Z,94704.55
2018-03-21T06:26:04.060Z,94693.28
2018-03-21T06:28:30.034Z,94691.13
2018-03-21T06:30:56.044Z,94688.61
2018-03-21T06:33:22.056Z,94696.03
2018-03-21T06:35:48.063Z,94704.55
2018-03-21T06:38:14.035Z,94713.79
2018-03-21T06:40:40.009Z,94716.67
2018-03-21T06:43:09.005Z,94700.36
2018-03-21T06:45:34.975Z,94705.47
2018-03-21T06:48:01.000Z,94704.09
2018-03-21T06:50:26.982Z,94692.27
2018-03-21T06:52:52.929Z,94695.23
2018-03-21T06:55:18.906Z,94694.83
2018-03-21T06:57:44.939Z,94693.22
2018-03-21T07:00:10.981Z,94693.02
2018-03-21T07:02:36.962Z,94657.20
2018-03-21T07:05:02.978Z,94657.97
2018-03-21T07:07:28.974Z,94656.20
2018-03-21T07:09:54.933Z,94651.67
2018-03-21T07:12:20.930Z,94666.40
2018-03-21T07:14:46.992Z,94681.53
2018-03-21T07:17:12.955Z,94692.38
2018-03-21T07:19:38.952Z,94696.10
2018-03-21T07:22:04.973Z,94701.61
2018-03-21T07:24:30.936Z,94706.70
2018-03-21T07:26:57.004Z,94699.42
2018-03-21T07:29:22.966Z,94701.61
2018-03-21T07:31:48.968Z,94705.73
2018-03-21T07:34:14.976Z,94726.54
2018-03-21T07:36:40.992Z,94706.44
2018-03-21T07:39:07.033Z,94686.57
2018-03-21T07:41:33.000Z,94711.73
2018-03-21T07:43:58.957Z,94720.80
2018-03-21T07:46:24.983Z,94705.83
2018-03-21T07:48:50.941Z,94690.66
2018-03-21T07:51:16.947Z,94680.27
2018-03-21T07:53:42.952Z,94664.72
2018-03-21T07:56:08.937Z,94664.72
2018-03-21T07:58:34.922Z,94657.51
2018-03-21T08:01:01.352Z,94664.42
2018-03-21T08:03:27.342Z,94651.88
2018-03-21T08:05:53.332Z,94639.14
2018-03-21T08:08:19.359Z,94634.19
2018-03-21T08:10:45.286Z,94641.23
2018-03-21T08:13:11.310Z,94641.03
2018-03-21T08:15:37.270Z,94644.45
2018-03-21T08:18:03.302Z,94656.72
2018-03-21T08:20:29.259Z,94655.75
2018-03-21T08:22:55.314Z,94655.89
2018-03-21T08:25:21.328Z,94657.23
2018-03-21T08:27:47.394Z,94663.67
2018-03-21T08:30:13.324Z,94651.59
2018-03-21T08:32:39.318Z,94652.17
2018-03-21T08:35:05.347Z,94643.47
2018-03-21T08:37:31.352Z,94655.79
2018-03-21T08:39:57.379Z,94682.23
2018-03-21T08:42:23.430Z,94685.80
2018-03-21T08:44:49.408Z,94681.44
2018-03-21T08:47:15.431Z,94689.25
2018-03-21T08:49:41.453Z,94675.49
2018-03-21T08:52:07.389Z,94653.25
2018-03-21T08:54:33.387Z,94659.72
2018-03-21T08:56:59.401Z,94655.39
2018-03-21T08:59:25.390Z,94650.69
2018-03-21T09:01:51.383Z,94642.61
2018-03-21T09:04:17.371Z,94643.01
2018-03-21T09:06:43.415Z,94643.78
2018-03-21T09:09:09.401Z,94638.08
2018-03-21T09:11:35.427Z,94629.02
2018-03-21T09:14:01.389Z,94641.40
2018-03-21T09:16:27.379Z,94664.98
2018-03-21T09:18:53.375Z,94675.80
2018-03-21T09:21:19.369Z,94663.21
2018-03-21T09:23:45.352Z,94665.39
2018-03-21T09:26:11.397Z,94673.65
2018-03-21T09:28:37.389Z,94675.02
2018-03-21T09:31:03.381Z,94682.07
2018-03-21T09:33:29.373Z,94695.42
2018-03-21T09:35:55.362Z,94697.41
2018-03-21T09:38:21.358Z,94694.42
2018-03-21T09:40:47.377Z,94697.98
2018-03-21T09:43:15.968Z,94694.83
2018-03-21T09:45:41.962Z,94686.17
2018-03-21T09:48:07.950Z,94674.76
2018-03-21T09:50:33.969Z,94679.48
2018-03-21T09:52:59.953Z,94678.31
2018-03-21T09:55:25.994Z,94657.47
2018-03-21T09:57:51.988Z,94641.30
2018-03-21T10:00:17.972Z,94614.19
2018-03-21T10:02:44.003Z,94584.73
2018-03-21T10:05:09.961Z,94519.86
2018-03-21T10:07:35.958Z,94539.50
2018-03-21T10:10:02.001Z,94600.50
2018-03-21T10:12:27.980Z,94613.48
2018-03-21T10:14:54.001Z,94611.70
2018-03-21T10:17:19.986Z,94542.51
2018-03-21T10:19:45.945Z,94559.22
2018-03-21T10:22:11.929Z,94595.22
2018-03-21T10:24:37.931Z,94597.17
2018-03-21T10:27:03.908Z,94583.41
2018-03-21T10:29:29.923Z,94577.14
2018-03-21T10:31:55.929Z,94584.02
2018-03-21T10:34:21.912Z,94600.92
2018-03-21T10:36:47.906Z,94577.14
2018-03-21T10:39:13.898Z,94553.95
2018-03-21T10:41:39.889Z,94542.14
2018-03-21T10:44:05.890Z,94554.34
2018-03-21T10:46:31.914Z,94581.63
2018-03-21T10:48:57.897Z,94590.13
2018-03-21T10:51:23.902Z,94586.56
2018-03-21T10:53:49.918Z,94589.48
2018-03-21T10:56:15.910Z,94587.14
2018-03-21T10:58:41.900Z,94579.28
2018-03-21T11:01:07.887Z,94584.59
2018-03-21T11:03:33.911Z,94581.06
2018-03-21T11:05:59.866Z,94585.19
2018-03-21T11:08:25.857Z,94584.42
2018-03-21T11:10:51.873Z,94588.38
2018-03-21T11:13:17.874Z,94584.42
2018-03-21T11:15:43.892Z,94576.97
2018-03-21T11:18:09.877Z,94595.83
2018-03-21T11:20:35.946Z,94590.16
2018-03-21T11:23:01.943Z,94591.56
2018-03-21T11:25:27.931Z,94600.79
2018-03-21T11:27:53.948Z,94600.39
2018-03-21T11:30:19.976Z,94614.55
2018-03-21T11:32:45.970Z,94621.59
2018-03-21T11:35:11.956Z,94612.16
2018-03-21T11:37:37.994Z,94616.09
2018-03-21T11:40:03.946Z,94622.98
2018-03-21T11:42:29.933Z,94616.70
2018-03-21T11:44:55.923Z,94617.84
2018-03-21T11:47:21.933Z,94615.89
2018-03-21T11:49:47.926Z,94613.14
2018-03-21T11:52:13.952Z,94610.19
2018-03-21T11:54:39.948Z,94615.69
2018-03-21T11:57:05.936Z,94617.88
2018-03-21T11:59:31.954Z,94615.35
2018-03-21T12:01:57.944Z,94607.70
2018-03-21T12:04:23.948Z,94614.78
2018-03-21T12:06:49.966Z,94620.92
2018-03-21T12:09:15.986Z,94633.50
2018-03-21T12:11:41.978Z,94623.47
2018-03-21T12:14:07.980Z,94627.20
2018-03-21T12:16:33.953Z,94623.88
2018-03-21T12:19:00.033Z,94616.62
2018-03-21T12:21:26.031Z,94614.30
2018-03-21T12:23:52.070Z,94613.27
2018-03-21T12:26:18.037Z,94623.30
2018-03-21T12:28:44.029Z,94617.97
2018-03-21T12:31:10.054Z,94630.55
2018-03-21T12:33:36.043Z,94639.75
2018-03-21T12:36:02.044Z,94655.86
2018-03-21T12:38:28.043Z,94675.27
2018-03-21T12:40:54.069Z,94681.97
2018-03-21T12:43:20.084Z,94686.30
2018-03-21T12:45:46.167Z,94703.05
2018-03-21T12:48:12.188Z,94705.36
2018-03-21T12:50:38.214Z,94687.23
2018-03-21T12:53:04.234Z,94692.38
2018-03-21T12:55:30.517Z,94701.20
2018-03-21T12:57:56.469Z,94706.73
2018-03-21T13:00:22.497Z,94720.27
2018-03-21T13:02:48.475Z,94715.16
2018-03-21T13:05:14.467Z,94720.47
2018-03-21T13:07:40.542Z,94723.78
2018-03-21T13:10:06.565Z,94730.09
2018-03-21T13:12:32.533Z,94730.27
2018-03-21T13:14:58.580Z,94744.39
2018-03-21T13:17:24.551Z,94748.55
2018-03-21T13:19:50.576Z,94743.66
2018-03-21T13:22:16.525Z,94760.03
2018-03-21T13:24:42.552Z,94771.25
2018-03-21T13:27:08.593Z,94775.17
2018-03-21T13:29:34.613Z,94784.23
2018-03-21T13:32:00.638Z,94802.09
2018-03-21T13:34:26.714Z,94806.78
2018-03-21T13:36:52.710Z,94805.01
2018-03-21T13:39:18.918Z,94797.32
2018-03-21T13:41:44.909Z,94799.87
2018-03-21T13:44:10.893Z,94805.58
2018-03-21T13:46:36.907Z,94796.31
2018-03-21T13:49:02.908Z,94794.77
2018-03-21T13:51:28.925Z,94801.45
2018-03-21T13:53:54.890Z,94791.81
2018-03-21T13:56:20.912Z,94812.66
2018-03-21T13:58:46.991Z,94809.13
2018-03-21T14:01:12.884Z,94804.97
2018-03-21T14:03:38.879Z,94794.13
2018-03-21T14:06:04.929Z,94814.00
2018-03-21T14:08:30.886Z,94815.00
2018-03-21T14:10:56.929Z,94805.24
2018-03-21T14:13:22.880Z,94809.50
2018-03-21T14:15:48.862Z,94819.30
2018-03-21T14:18:14.897Z,94814.97
2018-03-21T14:20:40.883Z,94823.80
2018-03-21T14:23:06.958Z,94836.94
2018-03-21T14:25:32.946Z,94836.94
2018-03-21T14:27:58.944Z,94839.70
2018-03-21T14:30:24.904Z,94843.02
2018-03-21T14:32:50.892Z,94838.72
2018-03-21T14:35:16.914Z,94839.45
2018-03-21T14:37:42.881Z,94843.98
2018-03-21T14:40:08.876Z,94839.45
2018-03-21T14:42:34.872Z,94840.09
2018-03-21T14:45:00.857Z,94841.07
2018-03-21T14:47:26.850Z,94856.61
2018-03-21T14:49:52.836Z,94849.09
2018-03-21T14:52:18.863Z,94857.14
2018-03-21T14:54:44.820Z,94859.48
2018-03-21T14:57:10.897Z,94868.31
2018-03-21T14:59:36.890Z,94869.52
2018-03-21T15:02:02.885Z,94862.24
2018-03-21T15:04:28.874Z,94887.41
2018-03-21T15:06:55.001Z,94882.88
2018-03-21T15:09:21.018Z,94911.38
2018-03-21T15:11:47.016Z,94909.78
2018-03-21T15:14:13.017Z,94914.89
2018-03-21T15:16:38.998Z,94912.75
2018-03-21T15:19:04.994Z,94920.22
2018-03-21T15:21:31.016Z,94923.19
2018-03-21T15:23:57.004Z,94929.66
2018-03-21T15:26:23.038Z,94931.84
2018-03-21T15:28:48.999Z,94932.09
2018-03-21T15:31:15.007Z,94924.77
2018-03-21T15:33:41.030Z,94938.11
2018-03-21T15:36:07.009Z,94933.78
2018-03-21T15:38:33.068Z,94941.84
2018-03-21T15:40:59.022Z,94956.00
2018-03-21T15:43:25.067Z,94968.14
2018-03-21T15:45:51.131Z,94960.50
2018-03-21T15:48:17.052Z,94960.12
2018-03-21T15:50:43.041Z,94965.23
2018-03-21T15:53:09.034Z,94972.27
2018-03-21T15:55:38.070Z,94986.80
2018-03-21T15:58:04.061Z,94982.67
2018-03-21T16:00:30.052Z,94993.15
2018-03-21T16:02:56.047Z,95004.57
2018-03-21T16:05:22.052Z,95001.61
2018-03-21T16:07:48.048Z,95018.73
2018-03-21T16:10:14.067Z,95026.02
2018-03-21T16:12:40.034Z,95029.79
2018-03-21T16:15:06.078Z,95024.45
2018-03-21T16:17:32.070Z,95023.77
2018-03-21T16:19:58.090Z,95033.07
2018-03-21T16:22:24.079Z,95025.88
2018-03-21T16:24:50.069Z,95029.91
2018-03-21T16:27:16.058Z,95028.67
2018-03-21T16:29:42.069Z,95034.38
2018-03-21T16:32:08.033Z,95044.00
2018-03-21T16:34:34.033Z,95042.62
2018-03-21T16:37:00.047Z,95052.83
2018-03-21T16:39:26.063Z,95044.94
2018-03-21T16:41:52.080Z,95047.85
2018-03-21T16:44:18.071Z,95062.06
2018-03-21T16:46:44.063Z,95056.39
2018-03-21T16:49:10.065Z,95079.95
2018-03-21T16:51:36.057Z,95086.83
2018-03-21T16:54:02.086Z,95089.78
2018-03-21T16:56:28.066Z,95086.43
2018-03-21T16:58:54.051Z,95079.95
2018-03-21T17:01:20.045Z,95087.59
2018-03-21T17:03:46.067Z,95101.52
2018-03-21T17:06:12.216Z,95110.02
2018-03-21T17:08:38.242Z,95096.06
2018-03-21T17:11:04.469Z,95116.91
2018-03-21T17:13:30.514Z,95141.11
2018-03-21T17:15:56.516Z,95133.63
2018-03-21T17:18:22.509Z,95132.09
2018-03-21T17:20:48.535Z,95136.62
2018-03-21T17:23:14.498Z,95130.79
2018-03-21T17:25:40.522Z,95130.92
2018-03-21T17:28:06.493Z,95139.84
2018-03-21T17:30:32.527Z,95152.68
2018-03-21T17:32:58.499Z,95158.42
2018-03-21T17:35:24.525Z,95161.55
2018-03-21T17:37:50.489Z,95165.77
2018-03-21T17:40:16.522Z,95157.61
2018-03-21T17:42:42.509Z,95158.94
2018-03-21T17:45:08.469Z,95167.03
2018-03-21T17:47:34.463Z,95171.78
2018-03-21T17:50:00.451Z,95170.40
2018-03-21T17:52:26.445Z,95179.95
2018-03-21T17:54:52.437Z,95178.00
2018-03-21T17:57:18.461Z,95179.95
2018-03-21T17:59:44.426Z,95189.83
2018-03-21T18:02:10.463Z,95191.56
2018-03-21T18:04:36.437Z,95194.52
2018-03-21T18:07:02.434Z,95185.29
2018-03-21T18:09:28.426Z,95194.36
2018-03-21T18:11:54.450Z,95209.09
2018-03-21T18:14:20.457Z,95208.77
2018-03-21T18:16:46.509Z,95212.28
2018-03-21T18:19:12.593Z,95219.88
2018-03-21T18:21:38.768Z,95216.50
2018-03-21T18:24:04.825Z,95221.25
2018-03-21T18:26:30.808Z,95217.36
2018-03-21T18:28:56.818Z,95222.46
2018-03-21T18:31:22.852Z,95241.73
2018-03-21T18:33:49.140Z,95249.75
2018-03-21T18:36:15.425Z,95246.44
2018-03-21T18:38:41.545Z,95240.31
2018-03-21T18:41:07.492Z,95251.53
2018-03-21T18:43:33.509Z,95253.83
2018-03-21T18:45:59.502Z,95270.91
2018-03-21T18:48:25.497Z,95266.17
2018-03-21T18:50:51.622Z,95271.47
2018-03-21T18:53:17.641Z,95271.02
2018-03-21T18:55:43.652Z,95268.45
2018-03-21T18:58:09.670Z,95270.97
2018-03-21T19:00:35.812Z,95268.78
2018-03-21T19:03:01.803Z,95278.66
2018-03-21T19:05:27.792Z,95279.58
2018-03-21T19:07:53.812Z,95294.16
2018-03-21T19:10:19.809Z,95289.83
2018-03-21T19:12:45.785Z,95287.65
2018-03-21T19:15:11.779Z,95283.71
2018-03-21T19:17:37.785Z,95280.39
2018-03-21T19:20:03.776Z,95282.95
2018-03-21T19:22:29.880Z,95280.49
2018-03-21T19:24:58.149Z,95287.73
2018-03-21T19:27:24.107Z,95294.94
2018-03-21T19:29:50.110Z,95296.96
2018-03-21T19:32:16.149Z,95298.95
2018-03-21T19:34:42.105Z,95290.13
2018-03-21T19:37:08.108Z,95290.91
2018-03-21T19:39:34.098Z,95294.06
2018-03-21T19:42:00.106Z,95310.38
2018-03-21T19:44:26.099Z,95308.38
2018-03-21T19:46:52.126Z,95319.91
2018-03-21T19:49:18.122Z,95329.70
2018-03-21T19:51:44.132Z,95327.14
2018-03-21T19:54:10.185Z,95321.59
2018-03-21T19:56:36.171Z,95327.04
2018-03-21T19:59:02.189Z,95328.98
2018-03-21T20:01:28.229Z,95327.73
2018-03-21T20:03:54.221Z,95338.75
2018-03-21T20:06:20.210Z,95350.11
2018-03-21T20:08:46.206Z,95354.44
2018-03-21T20:11:12.226Z,95353.22
2018-03-21T20:13:38.215Z,95354.38
2018-03-21T20:16:04.201Z,95357.91
2018-03-21T20:18:30.218Z,95356.73
2018-03-21T20:20:56.264Z,95357.45
2018-03-21T20:23:22.224Z,95357.70
2018-03-21T20:25:48.212Z,95354.70
2018-03-21T20:28:14.173Z,95359.42
2018-03-21T20:30:40.170Z,95361.38
2018-03-21T20:33:06.190Z,95365.09
2018-03-21T20:35:32.185Z,95356.03
2018-03-21T20:37:58.145Z,95354.84
2018-03-21T20:40:24.167Z,95359.37
2018-03-21T20:42:50.128Z,95364.47
2018-03-21T20:45:16.185Z,95365.05
2018-03-21T20:47:42.116Z,95365.80
2018-03-21T20:50:08.110Z,95368.15
2018-03-21T20:52:34.135Z,95370.70
2018-03-21T20:55:00.117Z,95368.71
2018-03-21T20:57:26.138Z,95383.85
2018-03-21T20:59:52.106Z,95371.66
2018-03-21T21:02:18.101Z,95377.32
2018-03-21T21:04:44.126Z,95369.47
2018-03-21T21:07:10.136Z,95363.56
2018-03-21T21:09:36.129Z,95362.19
2018-03-21T21:12:02.082Z,95358.21
2018-03-21T21:14:28.115Z,95358.41
2018-03-21T21:16:54.074Z,95369.42
2018-03-21T21:19:20.059Z,95370.95
2018-03-21T21:21:46.050Z,95378.64
2018-03-21T21:24:12.041Z,95385.88
2018-03-21T21:29:04.050Z,95391.13
2018-03-21T21:31:30.038Z,95397.29
2018-03-21T21:33:55.993Z,95400.39
2018-03-21T21:36:22.018Z,95405.30
2018-03-21T21:38:47.985Z,95411.97
2018-03-21T21:41:14.023Z,95404.52
2018-03-21T21:43:39.983Z,95402.90
2018-03-21T21:46:05.985Z,95401.52
2018-03-21T21:48:32.013Z,95400.71
2018-03-21T21:50:58.015Z,95406.41
2018-03-21T21:53:24.042Z,95400.09
2018-03-21T21:55:49.996Z,95393.97
2018-03-21T21:58:15.988Z,95397.69
2018-03-21T22:00:42.002Z,95396.31
2018-03-21T22:03:08.027Z,95398.09
2018-03-21T22:05:34.013Z,95402.78
2018-03-21T22:07:59.979Z,95400.84
2018-03-21T22:10:25.997Z,95403.36
2018-03-21T22:12:51.958Z,95401.98
2018-03-21T22:15:17.948Z,95400.60
2018-03-21T22:17:43.972Z,95400.79
2018-03-21T22:20:09.934Z,95396.83
2018-03-21T22:22:35.953Z,95391.73
2018-03-21T22:25:01.912Z,95391.73
2018-03-21T22:27:27.932Z,95388.16
2018-03-21T22:29:53.893Z,95396.42
2018-03-21T22:32:19.900Z,95396.26
2018-03-21T22:34:45.922Z,95407.62
2018-03-21T22:37:11.879Z,95399.77
2018-03-21T22:39:37.866Z,95403.44
2018-03-21T22:42:03.858Z,95405.02
2018-03-21T22:44:29.879Z,95402.47
2018-03-21T22:46:55.840Z,95399.11
2018-03-21T22:49:21.866Z,95396.15
2018-03-21T22:51:47.826Z,95399.88
2018-03-21T22:54:13.809Z,95395.91
2018-03-21T22:56:39.834Z,95390.65
2018-03-21T22:59:05.798Z,95391.61
2018-03-21T23:01:31.818Z,95390.41
2018-03-21T23:03:57.814Z,95393.16
2018-03-21T23:06:23.814Z,95395.91
2018-03-21T23:08:49.776Z,95401.03
2018-03-21T23:11:15.776Z,95396.66
2018-03-21T23:13:41.765Z,95403.33
2018-03-21T23:16:07.754Z,95405.88
2018-03-21T23:18:33.777Z,95404.91
2018-03-21T23:20:59.799Z,95400.58
2018-03-21T23:23:25.756Z,95401.76
2018-03-21T23:25:51.833Z,95399.98
2018-03-21T23:28:17.828Z,95403.08
2018-03-21T23:30:43.856Z,95397.82
2018-03-21T23:33:09.818Z,95402.52
2018-03-21T23:35:35.809Z,95405.83
2018-03-21T23:38:01.831Z,95407.39
2018-03-21T23:40:27.828Z,95409.33
2018-03-21T23:42:53.823Z,95418.21
2018-03-21T23:45:19.826Z,95414.44
2018-03-21T23:47:45.848Z,95407.91
2018-03-21T23:50:11.848Z,95410.66
2018-03-21T23:52:37.836Z,95408.06
2018-03-21T23:55:03.875Z,95399.09
2018-03-21T23:57:29.900Z,95405.97
2018-03-21T23:59:55.867Z,95398.84
